createdAt,value
2023-02-01T00:00:42.723Z,1.40
2023-02-01T00:01:42.705Z,1.40
2023-02-01T00:02:42.718Z,1.50
2023-02-01T00:03:42.745Z,1.50
2023-02-01T00:04:42.671Z,1.50
2023-02-01T00:05:42.666Z,1.50
2023-02-01T00:06:42.652Z,1.60
2023-02-01T00:07:42.642Z,1.50
2023-02-01T00:08:42.627Z,1.50
2023-02-01T00:09:42.639Z,1.40
2023-02-01T00:10:42.614Z,1.40
2023-02-01T00:11:42.608Z,1.40
2023-02-01T00:12:42.588Z,1.80
2023-02-01T00:13:42.606Z,1.60
2023-02-01T00:14:42.576Z,1.70
2023-02-01T00:15:42.610Z,1.80
2023-02-01T00:16:42.554Z,1.50
2023-02-01T00:17:42.536Z,1.70
2023-02-01T00:18:42.541Z,1.40
2023-02-01T00:19:42.521Z,1.80
2023-02-01T00:20:42.512Z,1.60
2023-02-01T00:21:42.506Z,1.40
2023-02-01T00:22:42.501Z,1.60
2023-02-01T00:23:42.484Z,1.40
2023-02-01T00:24:42.470Z,1.50
2023-02-01T00:25:42.461Z,1.50
2023-02-01T00:26:42.487Z,1.30
2023-02-01T00:27:42.437Z,1.60
2023-02-01T00:28:42.439Z,1.40
2023-02-01T00:29:42.425Z,1.40
2023-02-01T00:30:42.434Z,1.30
2023-02-01T00:31:42.465Z,1.50
2023-02-01T00:32:42.396Z,1.40
2023-02-01T00:33:42.385Z,1.70
2023-02-01T00:34:42.393Z,1.40
2023-02-01T00:35:42.346Z,1.50
2023-02-01T00:36:42.344Z,1.40
2023-02-01T00:37:42.337Z,1.50
2023-02-01T00:38:42.338Z,1.50
2023-02-01T00:39:42.355Z,1.20
2023-02-01T00:40:42.305Z,1.30
2023-02-01T00:41:42.287Z,1.40
2023-02-01T00:42:42.296Z,1.30
2023-02-01T00:43:42.270Z,1.30
2023-02-01T00:44:42.275Z,1.40
2023-02-01T00:45:42.247Z,1.40
2023-02-01T00:46:42.271Z,1.30
2023-02-01T00:47:42.222Z,1.40
2023-02-01T00:48:42.211Z,1.40
2023-02-01T00:49:42.210Z,1.30
2023-02-01T00:50:42.221Z,1.30
2023-02-01T00:51:42.184Z,1.30
2023-02-01T00:52:42.173Z,1.40
2023-02-01T00:53:42.162Z,1.60
2023-02-01T00:54:42.811Z,1.30
2023-02-01T00:55:42.147Z,1.50
2023-02-01T00:56:42.143Z,1.30
2023-02-01T00:57:42.124Z,1.50
2023-02-01T00:58:44.383Z,1.40
2023-02-01T00:59:42.093Z,1.30
2023-02-01T01:00:42.123Z,1.60
2023-02-01T01:01:42.174Z,1.30
2023-02-01T01:02:42.070Z,1.30
2023-02-01T01:03:42.050Z,1.40
2023-02-01T01:04:42.061Z,1.40
2023-02-01T01:05:42.032Z,1.40
2023-02-01T01:06:42.038Z,1.40
2023-02-01T01:07:42.010Z,1.40
2023-02-01T01:08:42.004Z,1.40
2023-02-01T01:09:41.995Z,1.50
2023-02-01T01:10:41.982Z,1.40
2023-02-01T01:11:42.001Z,1.30
2023-02-01T01:12:41.970Z,1.40
2023-02-01T01:13:41.964Z,1.30
2023-02-01T01:14:41.947Z,1.70
2023-02-01T01:15:41.927Z,1.30
2023-02-01T01:16:41.937Z,1.20
2023-02-01T01:17:41.906Z,1.30
2023-02-01T01:18:41.914Z,1.30
2023-02-01T01:19:41.880Z,1.30
2023-02-01T01:20:41.875Z,1.50
2023-02-01T01:21:41.868Z,1.30
2023-02-01T01:22:41.893Z,1.30
2023-02-01T01:23:41.871Z,1.40
2023-02-01T01:24:41.835Z,1.50
2023-02-01T01:25:41.832Z,1.60
2023-02-01T01:26:41.836Z,1.40
2023-02-01T01:27:41.800Z,1.20
2023-02-01T01:28:41.801Z,1.50
2023-02-01T01:29:41.779Z,1.50
2023-02-01T01:30:41.848Z,1.30
2023-02-01T01:31:41.797Z,1.40
2023-02-01T01:32:41.756Z,1.40
2023-02-01T01:33:41.753Z,1.30
2023-02-01T01:34:42.316Z,1.30
2023-02-01T01:35:41.717Z,1.40
2023-02-01T01:36:41.707Z,1.20
2023-02-01T01:37:41.701Z,1.30
2023-02-01T01:38:41.688Z,1.40
2023-02-01T01:39:41.684Z,1.30
2023-02-01T01:40:41.672Z,1.40
2023-02-01T01:41:41.663Z,1.40
2023-02-01T01:42:41.654Z,1.40
2023-02-01T01:43:41.627Z,1.30
2023-02-01T01:44:42.320Z,1.40
2023-02-01T01:45:41.609Z,1.40
2023-02-01T01:46:42.055Z,1.60
2023-02-01T01:47:41.605Z,1.50
2023-02-01T01:48:41.583Z,1.20
2023-02-01T01:49:41.580Z,1.20
2023-02-01T01:50:41.559Z,1.40
2023-02-01T01:51:41.552Z,1.40
2023-02-01T01:52:41.539Z,1.50
2023-02-01T01:53:41.543Z,1.40
2023-02-01T01:54:41.617Z,1.20
2023-02-01T01:55:41.502Z,1.30
2023-02-01T01:56:41.497Z,1.50
2023-02-01T01:57:41.480Z,1.40
2023-02-01T01:58:41.479Z,1.40
2023-02-01T01:59:41.475Z,1.30
2023-02-01T02:00:41.484Z,1.40
2023-02-01T02:01:42.475Z,1.60
2023-02-01T02:02:41.437Z,1.30
2023-02-01T02:03:41.434Z,1.30
2023-02-01T02:04:41.428Z,1.40
2023-02-01T02:05:41.414Z,1.20
2023-02-01T02:06:41.389Z,1.30
2023-02-01T02:07:41.381Z,1.40
2023-02-01T02:08:41.371Z,1.40
2023-02-01T02:09:48.202Z,1.30
2023-02-01T02:10:41.365Z,1.40
2023-02-01T02:11:41.335Z,1.50
2023-02-01T02:12:41.325Z,1.50
2023-02-01T02:13:41.314Z,1.40
2023-02-01T02:14:41.313Z,1.40
2023-02-01T02:15:41.306Z,1.30
2023-02-01T02:16:41.397Z,1.30
2023-02-01T02:17:41.271Z,1.30
2023-02-01T02:18:41.261Z,1.30
2023-02-01T02:19:41.253Z,1.30
2023-02-01T02:20:41.247Z,1.40
2023-02-01T02:21:41.233Z,1.40
2023-02-01T02:22:41.225Z,1.40
2023-02-01T02:23:41.215Z,1.40
2023-02-01T02:24:41.203Z,1.40
2023-02-01T02:25:41.210Z,1.50
2023-02-01T02:26:41.262Z,1.50
2023-02-01T02:27:41.169Z,1.10
2023-02-01T02:28:41.166Z,1.40
2023-02-01T02:29:41.151Z,1.30
2023-02-01T02:30:41.202Z,1.40
2023-02-01T02:31:41.155Z,1.30
2023-02-01T02:32:41.119Z,1.40
2023-02-01T02:33:41.123Z,1.40
2023-02-01T02:34:41.184Z,1.60
2023-02-01T02:35:41.089Z,1.40
2023-02-01T02:36:41.078Z,1.40
2023-02-01T02:37:41.086Z,1.30
2023-02-01T02:38:41.055Z,1.30
2023-02-01T02:39:41.044Z,1.40
2023-02-01T02:40:41.043Z,1.40
2023-02-01T02:41:41.015Z,1.20
2023-02-01T02:42:41.014Z,1.30
2023-02-01T02:43:40.996Z,1.50
2023-02-01T02:44:41.002Z,1.30
2023-02-01T02:45:41.061Z,1.30
2023-02-01T02:46:40.980Z,1.40
2023-02-01T02:47:40.953Z,1.20
2023-02-01T02:48:40.949Z,1.30
2023-02-01T02:49:40.939Z,1.60
2023-02-01T02:50:40.933Z,1.40
2023-02-01T02:51:41.554Z,1.50
2023-02-01T02:52:40.919Z,1.50
2023-02-01T02:53:40.920Z,1.40
2023-02-01T02:54:40.887Z,1.10
2023-02-01T02:55:40.876Z,1.20
2023-02-01T02:56:40.897Z,1.20
2023-02-01T02:57:40.875Z,1.40
2023-02-01T02:58:40.872Z,1.30
2023-02-01T02:59:40.850Z,1.50
2023-02-01T03:00:40.829Z,1.30
2023-02-01T03:01:40.825Z,1.30
2023-02-01T03:02:40.862Z,1.30
2023-02-01T03:03:40.805Z,1.20
2023-02-01T03:04:40.787Z,1.30
2023-02-01T03:05:40.785Z,1.30
2023-02-01T03:06:40.768Z,1.40
2023-02-01T03:07:40.757Z,1.10
2023-02-01T03:08:40.739Z,1.30
2023-02-01T03:09:40.748Z,1.30
2023-02-01T03:10:40.735Z,1.10
2023-02-01T03:11:40.709Z,1.20
2023-02-01T03:12:40.712Z,1.40
2023-02-01T03:13:40.703Z,1.30
2023-02-01T03:14:40.690Z,1.30
2023-02-01T03:15:40.678Z,1.30
2023-02-01T03:16:40.688Z,1.50
2023-02-01T03:17:40.654Z,1.20
2023-02-01T03:18:40.681Z,1.20
2023-02-01T03:19:40.624Z,1.30
2023-02-01T03:20:40.617Z,1.30
2023-02-01T03:21:40.601Z,1.20
2023-02-01T03:22:40.617Z,1.40
2023-02-01T03:23:40.585Z,1.40
2023-02-01T03:24:40.571Z,1.20
2023-02-01T03:25:40.564Z,1.10
2023-02-01T03:26:40.578Z,1.30
2023-02-01T03:27:40.550Z,1.30
2023-02-01T03:28:40.539Z,1.30
2023-02-01T03:29:40.521Z,1.30
2023-02-01T03:30:40.534Z,1.40
2023-02-01T03:31:40.556Z,1.40
2023-02-01T03:32:40.499Z,1.40
2023-02-01T03:33:40.488Z,1.30
2023-02-01T03:34:40.470Z,1.20
2023-02-01T03:35:40.463Z,1.20
2023-02-01T03:36:40.453Z,1.30
2023-02-01T03:37:40.435Z,1.30
2023-02-01T03:38:40.429Z,1.50
2023-02-01T03:39:40.430Z,1.20
2023-02-01T03:40:40.408Z,1.30
2023-02-01T03:41:40.395Z,1.20
2023-02-01T03:42:40.413Z,1.10
2023-02-01T03:43:40.377Z,1.20
2023-02-01T03:44:40.368Z,1.50
2023-02-01T03:45:40.396Z,1.30
2023-02-01T03:46:40.370Z,1.30
2023-02-01T03:47:40.334Z,1.10
2023-02-01T03:48:40.328Z,1.20
2023-02-01T03:49:40.328Z,1.30
2023-02-01T03:50:40.303Z,1.30
2023-02-01T03:51:40.304Z,1.20
2023-02-01T03:52:40.304Z,1.20
2023-02-01T03:53:40.271Z,1.10
2023-02-01T03:54:40.270Z,1.40
2023-02-01T03:55:40.271Z,1.20
2023-02-01T03:56:40.301Z,1.10
2023-02-01T03:57:40.249Z,1.40
2023-02-01T03:58:40.225Z,1.10
2023-02-01T03:59:40.222Z,1.30
2023-02-01T04:00:40.199Z,1.40
2023-02-01T04:01:40.186Z,1.60
2023-02-01T04:02:40.214Z,1.40
2023-02-01T04:03:40.176Z,1.20
2023-02-01T04:04:40.169Z,1.20
2023-02-01T04:05:40.149Z,1.30
2023-02-01T04:06:40.138Z,1.30
2023-02-01T04:07:40.123Z,1.20
2023-02-01T04:08:40.122Z,1.40
2023-02-01T04:09:40.138Z,1.30
2023-02-01T04:10:40.110Z,1.30
2023-02-01T04:11:40.097Z,1.20
2023-02-01T04:12:40.088Z,1.20
2023-02-01T04:13:40.062Z,1.10
2023-02-01T04:14:40.066Z,1.40
2023-02-01T04:15:40.055Z,1.20
2023-02-01T04:16:40.112Z,1.50
2023-02-01T04:17:41.999Z,1.20
2023-02-01T04:18:40.008Z,1.30
2023-02-01T04:19:40.009Z,1.30
2023-02-01T04:20:39.994Z,1.10
2023-02-01T04:21:39.996Z,1.20
2023-02-01T04:22:39.975Z,1.20
2023-02-01T04:23:39.992Z,1.10
2023-02-01T04:24:39.948Z,1.10
2023-02-01T04:25:39.937Z,1.20
2023-02-01T04:26:40.044Z,1.30
2023-02-01T04:27:44.298Z,1.10
2023-02-01T04:28:39.905Z,1.30
2023-02-01T04:29:39.902Z,1.20
2023-02-01T04:30:39.938Z,1.40
2023-02-01T04:31:39.943Z,1.30
2023-02-01T04:32:39.862Z,1.30
2023-02-01T04:33:39.909Z,1.30
2023-02-01T04:34:39.838Z,1.30
2023-02-01T04:35:39.835Z,1.20
2023-02-01T04:36:39.821Z,1.40
2023-02-01T04:37:39.840Z,1.20
2023-02-01T04:38:39.804Z,1.20
2023-02-01T04:39:39.802Z,1.10
2023-02-01T04:40:39.781Z,1.20
2023-02-01T04:41:39.778Z,1.20
2023-02-01T04:42:39.776Z,1.20
2023-02-01T04:43:39.756Z,1.30
2023-02-01T04:44:39.742Z,1.20
2023-02-01T04:45:39.740Z,1.20
2023-02-01T04:46:39.718Z,1.40
2023-02-01T04:47:39.710Z,1.20
2023-02-01T04:48:39.696Z,1.40
2023-02-01T04:49:39.717Z,1.30
2023-02-01T04:50:39.679Z,1.20
2023-02-01T04:51:39.672Z,1.20
2023-02-01T04:52:39.653Z,1.20
2023-02-01T04:53:39.648Z,1.30
2023-02-01T04:54:39.644Z,1.20
2023-02-01T04:55:39.624Z,1.20
2023-02-01T04:56:39.639Z,1.30
2023-02-01T04:57:39.608Z,1.30
2023-02-01T04:58:39.615Z,1.10
2023-02-01T04:59:39.597Z,1.10
2023-02-01T05:00:39.568Z,1.30
2023-02-01T05:01:39.608Z,1.30
2023-02-01T05:02:39.562Z,1.10
2023-02-01T05:03:39.563Z,1.20
2023-02-01T05:04:39.610Z,1.40
2023-02-01T05:05:39.536Z,1.30
2023-02-01T05:06:39.515Z,1.30
2023-02-01T05:07:39.515Z,1.30
2023-02-01T05:08:39.526Z,1.20
2023-02-01T05:09:39.501Z,1.30
2023-02-01T05:10:39.474Z,1.20
2023-02-01T05:11:39.472Z,1.30
2023-02-01T05:12:39.443Z,1.30
2023-02-01T05:13:39.438Z,1.40
2023-02-01T05:14:39.431Z,1.30
2023-02-01T05:15:39.446Z,1.30
2023-02-01T05:16:39.407Z,1.20
2023-02-01T05:17:39.412Z,1.00
2023-02-01T05:18:39.451Z,1.30
2023-02-01T05:19:39.386Z,1.10
2023-02-01T05:20:39.358Z,1.20
2023-02-01T05:21:39.359Z,1.10
2023-02-01T05:22:39.380Z,1.10
2023-02-01T05:23:39.329Z,1.20
2023-02-01T05:24:39.317Z,1.30
2023-02-01T05:25:39.317Z,1.20
2023-02-01T05:26:39.319Z,1.20
2023-02-01T05:27:39.300Z,1.30
2023-02-01T05:28:39.272Z,1.30
2023-02-01T05:29:39.277Z,1.30
2023-02-01T05:30:41.919Z,1.40
2023-02-01T05:31:39.358Z,1.40
2023-02-01T05:32:39.240Z,1.10
2023-02-01T05:33:39.223Z,1.30
2023-02-01T05:34:39.213Z,1.20
2023-02-01T05:35:39.222Z,1.20
2023-02-01T05:36:39.187Z,1.30
2023-02-01T05:37:39.177Z,1.40
2023-02-01T05:38:39.167Z,1.30
2023-02-01T05:39:39.157Z,1.20
2023-02-01T05:40:39.155Z,1.20
2023-02-01T05:41:39.139Z,1.20
2023-02-01T05:42:39.120Z,1.30
2023-02-01T05:43:39.121Z,1.20
2023-02-01T05:44:39.102Z,1.20
2023-02-01T05:45:39.105Z,1.30
2023-02-01T05:46:39.140Z,1.30
2023-02-01T05:47:39.073Z,1.40
2023-02-01T05:48:39.055Z,1.20
2023-02-01T05:49:39.054Z,1.30
2023-02-01T05:50:39.050Z,1.30
2023-02-01T05:51:39.047Z,1.30
2023-02-01T05:52:39.041Z,1.40
2023-02-01T05:53:39.012Z,1.10
2023-02-01T05:54:38.992Z,1.20
2023-02-01T05:55:38.988Z,1.30
2023-02-01T05:56:38.984Z,1.30
2023-02-01T05:57:38.963Z,1.40
2023-02-01T05:58:38.987Z,1.30
2023-02-01T05:59:38.944Z,1.30
2023-02-01T06:00:38.944Z,1.30
2023-02-01T06:01:38.952Z,1.10
2023-02-01T06:02:38.957Z,1.10
2023-02-01T06:03:38.960Z,1.30
2023-02-01T06:04:38.943Z,1.20
2023-02-01T06:05:38.886Z,1.20
2023-02-01T06:06:38.878Z,1.20
2023-02-01T06:07:38.860Z,1.20
2023-02-01T06:08:38.843Z,1.20
2023-02-01T06:09:38.851Z,1.30
2023-02-01T06:10:38.820Z,1.10
2023-02-01T06:11:38.838Z,1.30
2023-02-01T06:12:38.832Z,1.10
2023-02-01T06:13:38.803Z,1.00
2023-02-01T06:14:38.815Z,1.10
2023-02-01T06:15:38.866Z,1.30
2023-02-01T06:16:38.762Z,1.30
2023-02-01T06:17:38.788Z,1.40
2023-02-01T06:18:38.762Z,1.40
2023-02-01T06:19:38.737Z,1.20
2023-02-01T06:20:38.712Z,1.20
2023-02-01T06:21:38.708Z,1.30
2023-02-01T06:22:38.690Z,1.20
2023-02-01T06:23:38.719Z,1.20
2023-02-01T06:24:38.681Z,1.30
2023-02-01T06:25:38.692Z,1.30
2023-02-01T06:26:38.709Z,1.20
2023-02-01T06:27:38.649Z,1.20
2023-02-01T06:28:38.643Z,1.30
2023-02-01T06:29:38.628Z,1.20
2023-02-01T06:30:38.621Z,1.40
2023-02-01T06:31:38.677Z,1.20
2023-02-01T06:32:38.598Z,1.20
2023-02-01T06:33:38.591Z,1.20
2023-02-01T06:34:38.591Z,1.30
2023-02-01T06:35:38.559Z,1.40
2023-02-01T06:36:38.546Z,1.20
2023-02-01T06:37:38.541Z,1.40
2023-02-01T06:38:38.521Z,1.20
2023-02-01T06:39:38.528Z,1.20
2023-02-01T06:40:38.502Z,1.20
2023-02-01T06:41:38.495Z,1.30
2023-02-01T06:42:38.502Z,1.20
2023-02-01T06:43:38.497Z,1.30
2023-02-01T06:44:38.454Z,1.30
2023-02-01T06:45:38.453Z,1.20
2023-02-01T06:46:38.389Z,1.20
2023-02-01T06:47:38.428Z,1.30
2023-02-01T06:48:38.377Z,1.20
2023-02-01T06:49:38.363Z,1.20
2023-02-01T06:50:38.333Z,1.10
2023-02-01T06:51:38.341Z,1.10
2023-02-01T06:52:38.336Z,1.20
2023-02-01T06:53:38.366Z,1.10
2023-02-01T06:54:38.376Z,1.20
2023-02-01T06:55:38.288Z,1.10
2023-02-01T06:56:38.275Z,1.20
2023-02-01T06:57:38.272Z,1.30
2023-02-01T06:58:38.327Z,1.30
2023-02-01T06:59:38.294Z,1.10
2023-02-01T07:00:38.288Z,1.40
2023-02-01T07:01:38.334Z,1.20
2023-02-01T07:02:38.224Z,1.20
2023-02-01T07:03:38.206Z,1.10
2023-02-01T07:04:38.187Z,1.10
2023-02-01T07:05:38.246Z,1.90
2023-02-01T07:06:38.170Z,1.10
2023-02-01T07:07:38.172Z,1.10
2023-02-01T07:08:38.151Z,1.20
2023-02-01T07:09:38.147Z,1.20
2023-02-01T07:10:38.124Z,1.30
2023-02-01T07:11:38.135Z,1.30
2023-02-01T07:12:38.116Z,1.40
2023-02-01T07:13:38.105Z,1.20
2023-02-01T07:14:38.085Z,1.40
2023-02-01T07:15:38.081Z,1.40
2023-02-01T07:16:38.134Z,1.70
2023-02-01T07:17:38.058Z,1.70
2023-02-01T07:18:38.049Z,1.50
2023-02-01T07:19:38.040Z,1.60
2023-02-01T07:20:38.033Z,1.40
2023-02-01T07:21:38.050Z,1.40
2023-02-01T07:22:38.015Z,1.30
2023-02-01T07:23:38.013Z,1.20
2023-02-01T07:24:37.991Z,1.40
2023-02-01T07:25:38.000Z,1.30
2023-02-01T07:26:38.007Z,1.60
2023-02-01T07:27:37.950Z,1.30
2023-02-01T07:28:37.938Z,1.30
2023-02-01T07:29:37.962Z,1.30
2023-02-01T07:30:37.944Z,1.40
2023-02-01T07:31:37.923Z,1.50
2023-02-01T07:32:37.928Z,1.40
2023-02-01T07:33:37.909Z,1.30
2023-02-01T07:34:37.877Z,1.30
2023-02-01T07:35:37.875Z,1.30
2023-02-01T07:36:37.866Z,1.90
2023-02-01T07:37:37.879Z,1.30
2023-02-01T07:38:37.829Z,1.50
2023-02-01T07:39:37.837Z,1.40
2023-02-01T07:40:37.817Z,1.30
2023-02-01T07:41:37.803Z,1.60
2023-02-01T07:42:37.798Z,1.30
2023-02-01T07:43:37.883Z,1.40
2023-02-01T07:44:37.788Z,1.30
2023-02-01T07:45:37.819Z,1.50
2023-02-01T07:46:37.758Z,1.30
2023-02-01T07:47:44.569Z,1.40
2023-02-01T07:48:37.731Z,1.40
2023-02-01T07:49:37.738Z,1.60
2023-02-01T07:50:37.710Z,1.40
2023-02-01T07:51:37.702Z,1.20
2023-02-01T07:52:37.690Z,1.40
2023-02-01T07:53:37.689Z,1.30
2023-02-01T07:54:37.679Z,1.30
2023-02-01T07:55:37.662Z,1.10
2023-02-01T07:56:37.641Z,1.50
2023-02-01T07:57:37.649Z,1.40
2023-02-01T07:58:37.618Z,1.30
2023-02-01T07:59:37.610Z,1.30
2023-02-01T08:00:37.610Z,1.20
2023-02-01T08:01:37.629Z,1.40
2023-02-01T08:02:37.580Z,1.50
2023-02-01T08:03:37.570Z,1.00
2023-02-01T08:04:37.565Z,1.50
2023-02-01T08:05:37.556Z,1.30
2023-02-01T08:06:37.546Z,1.60
2023-02-01T08:07:37.533Z,1.50
2023-02-01T08:08:37.525Z,1.40
2023-02-01T08:09:37.537Z,1.40
2023-02-01T08:10:37.487Z,1.50
2023-02-01T08:11:37.487Z,1.10
2023-02-01T08:12:37.493Z,1.40
2023-02-01T08:13:37.461Z,1.30
2023-02-01T08:14:37.453Z,1.40
2023-02-01T08:15:37.449Z,1.40
2023-02-01T08:16:37.516Z,1.50
2023-02-01T08:17:37.422Z,1.50
2023-02-01T08:18:37.428Z,1.20
2023-02-01T08:19:37.416Z,1.40
2023-02-01T08:20:37.397Z,1.40
2023-02-01T08:21:37.705Z,1.30
2023-02-01T08:22:37.391Z,1.50
2023-02-01T08:23:37.362Z,1.30
2023-02-01T08:24:37.350Z,1.40
2023-02-01T08:25:37.340Z,1.40
2023-02-01T08:26:37.360Z,1.70
2023-02-01T08:27:37.333Z,1.30
2023-02-01T08:28:38.041Z,1.40
2023-02-01T08:29:37.315Z,1.40
2023-02-01T08:30:37.324Z,1.20
2023-02-01T08:31:37.298Z,1.40
2023-02-01T08:32:37.261Z,1.60
2023-02-01T08:33:37.281Z,1.30
2023-02-01T08:34:37.276Z,1.60
2023-02-01T08:35:43.177Z,1.30
2023-02-01T08:36:37.232Z,1.40
2023-02-01T08:37:37.216Z,1.40
2023-02-01T08:38:37.218Z,1.40
2023-02-01T08:39:37.193Z,1.50
2023-02-01T08:40:37.190Z,1.40
2023-02-01T08:41:37.159Z,1.40
2023-02-01T08:42:37.155Z,1.60
2023-02-01T08:43:37.157Z,1.40
2023-02-01T08:44:37.167Z,1.30
2023-02-01T08:45:37.144Z,1.20
2023-02-01T08:46:37.134Z,1.50
2023-02-01T08:47:37.109Z,1.50
2023-02-01T08:48:37.984Z,1.40
2023-02-01T08:49:37.077Z,1.50
2023-02-01T08:50:37.079Z,1.40
2023-02-01T08:51:37.093Z,1.40
2023-02-01T08:52:38.301Z,1.50
2023-02-01T08:53:37.058Z,1.40
2023-02-01T08:54:37.032Z,1.50
2023-02-01T08:55:37.019Z,1.50
2023-02-01T08:56:37.515Z,1.40
2023-02-01T08:57:37.011Z,1.50
2023-02-01T08:58:37.001Z,1.50
2023-02-01T08:59:36.975Z,1.40
2023-02-01T09:00:36.969Z,1.50
2023-02-01T09:01:37.031Z,1.40
2023-02-01T09:02:36.964Z,1.30
2023-02-01T09:03:37.011Z,1.50
2023-02-01T09:04:36.933Z,1.40
2023-02-01T09:05:48.742Z,1.80
2023-02-01T09:06:36.925Z,1.60
2023-02-01T09:07:36.909Z,1.40
2023-02-01T09:08:36.893Z,1.40
2023-02-01T09:09:36.895Z,1.30
2023-02-01T09:10:37.463Z,1.70
2023-02-01T09:11:36.859Z,1.40
2023-02-01T09:12:36.868Z,1.40
2023-02-01T09:13:36.848Z,1.40
2023-02-01T09:14:36.897Z,1.40
2023-02-01T09:15:36.828Z,1.40
2023-02-01T09:16:36.803Z,1.50
2023-02-01T09:17:36.808Z,1.50
2023-02-01T09:18:41.853Z,1.50
2023-02-01T09:19:36.794Z,1.50
2023-02-01T09:20:36.759Z,1.30
2023-02-01T09:21:36.754Z,1.50
2023-02-01T09:22:36.758Z,1.30
2023-02-01T09:23:36.731Z,1.40
2023-02-01T09:24:36.729Z,1.40
2023-02-01T09:25:36.709Z,1.50
2023-02-01T09:26:36.764Z,1.40
2023-02-01T09:27:36.696Z,1.40
2023-02-01T09:28:36.679Z,1.50
2023-02-01T09:29:36.667Z,1.40
2023-02-01T09:30:36.697Z,1.40
2023-02-01T09:31:37.584Z,1.40
2023-02-01T09:32:36.846Z,1.40
2023-02-01T09:33:36.627Z,1.40
2023-02-01T09:34:36.628Z,1.40
2023-02-01T09:35:36.609Z,1.40
2023-02-01T09:36:36.616Z,1.40
2023-02-01T09:37:36.578Z,1.60
2023-02-01T09:38:41.699Z,1.50
2023-02-01T09:39:36.585Z,1.60
2023-02-01T09:40:36.605Z,1.60
2023-02-01T09:41:36.535Z,1.50
2023-02-01T09:42:36.544Z,1.40
2023-02-01T09:43:36.526Z,1.50
2023-02-01T09:44:43.832Z,1.50
2023-02-01T09:45:36.518Z,1.40
2023-02-01T09:46:36.539Z,1.30
2023-02-01T09:47:36.485Z,1.50
2023-02-01T09:48:36.485Z,1.30
2023-02-01T09:49:36.453Z,1.40
2023-02-01T09:50:36.488Z,1.40
2023-02-01T09:51:36.470Z,1.50
2023-02-01T09:52:36.483Z,1.50
2023-02-01T09:53:36.502Z,1.30
2023-02-01T09:54:36.413Z,1.20
2023-02-01T09:55:36.480Z,1.50
2023-02-01T09:56:36.386Z,1.40
2023-02-01T09:57:36.378Z,1.40
2023-02-01T09:58:36.381Z,1.70
2023-02-01T09:59:37.418Z,1.60
2023-02-01T10:00:36.356Z,1.40
2023-02-01T10:01:36.392Z,1.40
2023-02-01T10:02:36.338Z,1.50
2023-02-01T10:03:36.362Z,1.50
2023-02-01T10:04:36.303Z,1.40
2023-02-01T10:05:36.299Z,1.60
2023-02-01T10:06:36.289Z,1.50
2023-02-01T10:07:36.282Z,1.50
2023-02-01T10:08:36.295Z,1.50
2023-02-01T10:09:36.253Z,1.80
2023-02-01T10:10:36.243Z,2.00
2023-02-01T10:11:36.228Z,1.80
2023-02-01T10:12:36.240Z,1.90
2023-02-01T10:13:36.221Z,1.70
2023-02-01T10:14:36.233Z,1.70
2023-02-01T10:15:36.215Z,1.70
2023-02-01T10:16:36.350Z,1.80
2023-02-01T10:17:36.166Z,1.90
2023-02-01T10:18:36.170Z,1.80
2023-02-01T10:19:36.155Z,2.00
2023-02-01T10:20:36.147Z,2.00
2023-02-01T10:21:36.132Z,1.90
2023-02-01T10:22:58.959Z,1.80
2023-02-01T10:23:36.113Z,2.00
2023-02-01T10:24:36.103Z,2.30
2023-02-01T10:25:36.115Z,2.20
2023-02-01T10:26:36.139Z,1.90
2023-02-01T10:27:36.078Z,2.10
2023-02-01T10:28:36.054Z,1.70
2023-02-01T10:29:36.040Z,2.10
2023-02-01T10:30:36.173Z,1.90
2023-02-01T10:31:36.172Z,1.90
2023-02-01T10:32:36.023Z,2.40
2023-02-01T10:33:35.997Z,2.10
2023-02-01T10:34:35.994Z,2.20
2023-02-01T10:35:35.988Z,2.00
2023-02-01T10:36:35.982Z,2.10
2023-02-01T10:37:35.959Z,2.30
2023-02-01T10:38:35.956Z,1.90
2023-02-01T10:39:35.933Z,2.00
2023-02-01T10:40:35.945Z,2.00
2023-02-01T10:41:35.918Z,2.10
2023-02-01T10:42:35.917Z,2.00
2023-02-01T10:43:35.894Z,2.00
2023-02-01T10:44:35.887Z,1.70
2023-02-01T10:45:35.884Z,2.40
2023-02-01T10:46:35.934Z,2.00
2023-02-01T10:47:35.854Z,2.00
2023-02-01T10:48:35.866Z,2.10
2023-02-01T10:49:35.851Z,1.90
2023-02-01T10:50:35.845Z,1.80
2023-02-01T10:51:35.808Z,1.90
2023-02-01T10:52:35.804Z,2.30
2023-02-01T10:53:35.800Z,1.90
2023-02-01T10:54:35.791Z,1.90
2023-02-01T10:55:35.768Z,1.80
2023-02-01T10:56:35.759Z,1.80
2023-02-01T10:57:35.747Z,1.70
2023-02-01T10:58:35.737Z,1.60
2023-02-01T10:59:35.733Z,1.90
2023-02-01T11:00:35.771Z,1.90
2023-02-01T11:01:35.731Z,1.80
2023-02-01T11:02:35.809Z,1.90
2023-02-01T11:03:35.685Z,1.90
2023-02-01T11:04:35.687Z,2.00
2023-02-01T11:05:35.675Z,1.80
2023-02-01T11:06:35.652Z,1.90
2023-02-01T11:07:35.640Z,1.80
2023-02-01T11:08:35.877Z,1.80
2023-02-01T11:09:35.625Z,1.80
2023-02-01T11:10:35.618Z,1.80
2023-02-01T11:11:35.615Z,1.90
2023-02-01T11:12:35.592Z,2.00
2023-02-01T11:13:35.577Z,2.00
2023-02-01T11:14:35.578Z,2.10
2023-02-01T11:15:35.559Z,1.90
2023-02-01T11:16:35.688Z,2.10
2023-02-01T11:17:35.619Z,1.70
2023-02-01T11:18:35.533Z,2.00
2023-02-01T11:19:35.525Z,2.20
2023-02-01T11:20:35.521Z,2.10
2023-02-01T11:21:35.534Z,2.10
2023-02-01T11:22:35.504Z,2.00
2023-02-01T11:23:35.475Z,1.70
2023-02-01T11:24:35.484Z,2.00
2023-02-01T11:25:35.481Z,1.70
2023-02-01T11:26:35.491Z,2.10
2023-02-01T11:27:40.326Z,1.90
2023-02-01T11:28:35.436Z,1.80
2023-02-01T11:29:35.445Z,1.90
2023-02-01T11:30:35.466Z,2.00
2023-02-01T11:31:35.524Z,1.80
2023-02-01T11:32:35.403Z,1.90
2023-02-01T11:33:35.389Z,1.80
2023-02-01T11:34:35.385Z,1.90
2023-02-01T11:35:35.374Z,2.00
2023-02-01T11:36:35.370Z,1.90
2023-02-01T11:37:35.329Z,1.90
2023-02-01T11:38:35.373Z,1.80
2023-02-01T11:39:35.316Z,1.90
2023-02-01T11:40:35.306Z,2.10
2023-02-01T11:41:35.302Z,1.90
2023-02-01T11:42:35.281Z,2.10
2023-02-01T11:43:35.273Z,2.00
2023-02-01T11:44:35.274Z,1.60
2023-02-01T11:45:35.259Z,1.90
2023-02-01T11:46:35.268Z,2.20
2023-02-01T11:47:35.236Z,1.90
2023-02-01T11:48:35.237Z,1.60
2023-02-01T11:49:35.223Z,1.70
2023-02-01T11:50:35.202Z,1.80
2023-02-01T11:51:35.187Z,1.90
2023-02-01T11:52:35.221Z,1.80
2023-02-01T11:53:35.172Z,1.80
2023-02-01T11:54:35.181Z,2.00
2023-02-01T11:55:35.258Z,1.90
2023-02-01T11:56:35.137Z,1.80
2023-02-01T11:57:35.134Z,1.70
2023-02-01T11:58:35.119Z,1.70
2023-02-01T11:59:37.361Z,2.00
2023-02-01T12:00:35.156Z,1.80
2023-02-01T12:01:35.127Z,1.90
2023-02-01T12:02:35.101Z,2.00
2023-02-01T12:03:35.081Z,2.00
2023-02-01T12:04:35.076Z,1.70
2023-02-01T12:05:35.059Z,2.10
2023-02-01T12:06:35.049Z,1.90
2023-02-01T12:07:35.041Z,2.00
2023-02-01T12:08:35.022Z,1.80
2023-02-01T12:09:35.025Z,2.10
2023-02-01T12:10:34.994Z,1.90
2023-02-01T12:11:34.986Z,1.90
2023-02-01T12:12:34.973Z,2.00
2023-02-01T12:13:34.975Z,2.10
2023-02-01T12:14:34.955Z,1.90
2023-02-01T12:15:34.951Z,2.00
2023-02-01T12:16:34.998Z,1.70
2023-02-01T12:17:34.918Z,1.90
2023-02-01T12:18:34.908Z,1.80
2023-02-01T12:19:34.975Z,2.20
2023-02-01T12:20:34.901Z,2.00
2023-02-01T12:21:34.886Z,1.90
2023-02-01T12:22:34.882Z,1.80
2023-02-01T12:23:34.860Z,1.90
2023-02-01T12:24:34.871Z,1.80
2023-02-01T12:25:34.848Z,1.80
2023-02-01T12:26:34.878Z,1.80
2023-02-01T12:27:34.816Z,2.00
2023-02-01T12:28:34.808Z,1.80
2023-02-01T12:29:34.855Z,2.10
2023-02-01T12:30:34.855Z,1.70
2023-02-01T12:31:34.804Z,1.80
2023-02-01T12:32:34.776Z,1.70
2023-02-01T12:33:34.773Z,1.90
2023-02-01T12:34:34.757Z,2.20
2023-02-01T12:35:34.752Z,2.00
2023-02-01T12:36:34.734Z,1.70
2023-02-01T12:37:34.738Z,1.60
2023-02-01T12:38:34.714Z,1.80
2023-02-01T12:39:34.714Z,2.00
2023-02-01T12:40:34.711Z,1.80
2023-02-01T12:41:34.707Z,2.30
2023-02-01T12:42:34.677Z,1.80
2023-02-01T12:43:34.662Z,1.70
2023-02-01T12:44:34.676Z,1.80
2023-02-01T12:45:34.661Z,1.70
2023-02-01T12:46:34.626Z,1.80
2023-02-01T12:47:34.635Z,1.90
2023-02-01T12:48:34.604Z,2.00
2023-02-01T12:49:34.598Z,1.80
2023-02-01T12:50:34.587Z,1.70
2023-02-01T12:51:34.609Z,1.80
2023-02-01T12:52:34.597Z,1.80
2023-02-01T12:53:34.576Z,1.80
2023-02-01T12:54:34.633Z,1.90
2023-02-01T12:55:34.576Z,1.80
2023-02-01T12:56:34.559Z,1.90
2023-02-01T12:57:34.570Z,1.90
2023-02-01T12:58:34.524Z,1.60
2023-02-01T12:59:34.525Z,1.60
2023-02-01T13:00:34.523Z,1.90
2023-02-01T13:01:34.587Z,1.60
2023-02-01T13:02:34.626Z,1.60
2023-02-01T13:03:34.498Z,1.80
2023-02-01T13:04:34.454Z,1.60
2023-02-01T13:05:34.454Z,1.70
2023-02-01T13:06:34.440Z,2.00
2023-02-01T13:07:34.458Z,1.70
2023-02-01T13:08:34.425Z,1.80
2023-02-01T13:09:35.092Z,1.80
2023-02-01T13:10:34.436Z,2.10
2023-02-01T13:11:34.401Z,1.90
2023-02-01T13:12:34.402Z,1.90
2023-02-01T13:13:34.397Z,1.50
2023-02-01T13:14:34.377Z,1.60
2023-02-01T13:15:34.388Z,1.80
2023-02-01T13:16:35.271Z,1.90
2023-02-01T13:17:34.331Z,1.50
2023-02-01T13:18:34.318Z,1.80